Tomofujimaru — JL6701 — position and weather

sailwx.info

Track history (hours):
 
Tides and Currents Weather Stations Pressure Air Temp Water Temp Dewpoint Dewpoint Depression Visibility Wind Speed Wind Dir Waves Ship Positions

Tomofujimaru

Last reported at 2018-Feb-25 19:42 UTC. Time now 2018-Feb-25 21:18 UTC.
Position N 33°23' E 132°01'.

Length 104 m; draft 6.3 m.

Type: Tanker. MMSI: 431501737.

Date/timePositionNaut miles runAvg speedWind from/ knotsBaromVisibWave heightAir tempDewpointWater temp
2018-Feb-25 19:42N 33°23' E 132°01'313.4
2018-Feb-25 19:29N 33°20' E 131°59'7 0.1
2018-Feb-23 18:37N 33°14' E 132°02'213.6
2018-Feb-23 18:30N 33°16' E 132°01'611.2
2018-Feb-23 17:57N 33°22' E 132°00'2512.7
2018-Feb-23 15:58N 33°40' E 132°21'712.3
2018-Feb-23 15:26N 33°45' E 132°27'612.6
2018-Feb-23 14:58N 33°49' E 132°31'612.9
2018-Feb-23 14:30N 33°54' E 132°36'612.7
2018-Feb-23 14:00N 33°58' E 132°42'713.1
2018-Feb-23 13:31N 34°03' E 132°47'1 0.1
2018-Feb-22 17:58N 34°02' E 132°47'714.4
2018-Feb-22 17:30N 33°56' E 132°42'714.6
2018-Feb-22 17:00N 33°52' E 132°35'713.9
2018-Feb-22 16:30N 33°47' E 132°28'814.0
2018-Feb-22 15:55N 33°44' E 132°19'1913.5
2018-Feb-22 14:32N 33°43' E 131°57'113.7
2018-Feb-22 14:27N 33°44' E 131°56'713.3
2018-Feb-22 13:57N 33°45' E 131°48'613.2
2018-Feb-22 13:30N 33°46' E 131°41'713.0
2018-Feb-22 13:00N 33°47' E 131°33'713.1
2018-Feb-22 12:30N 33°49' E 131°25'713.2
2018-Feb-22 12:00N 33°50' E 131°18'713.3
2018-Feb-22 11:30N 33°52' E 131°10'713.6
2018-Feb-22 11:00N 33°56' E 131°03'611.4
2018-Feb-22 10:31N 33°56' E 130°57'4 7.7
2018-Feb-22 10:00N 33°58' E 130°52'611.8
2018-Feb-22 09:30N 34°02' E 130°48'713.4
2018-Feb-22 09:01N 34°01' E 130°40'713.9
2018-Feb-22 08:31N 33°59' E 130°32'713.5
2018-Feb-22 08:00N 33°56' E 130°24'713.2
2018-Feb-22 07:31N 33°50' E 130°20'713.4
2018-Feb-22 07:00N 33°44' E 130°17'611.4
2018-Feb-22 06:30N 33°39' E 130°19'4 8.7
2018-Feb-22 06:00N 33°36' E 130°23'0 0.0
2018-Feb-22 05:29N 33°36' E 130°23'0 0.0
2018-Feb-22 04:56N 33°36' E 130°23'0 0.0
2018-Feb-22 04:29N 33°36' E 130°23'0 0.0
2018-Feb-22 03:59N 33°36' E 130°23'0 0.0
2018-Feb-22 03:29N 33°36' E 130°23'0 0.0
2018-Feb-22 02:59N 33°36' E 130°23'0 0.0
2018-Feb-22 02:28N 33°36' E 130°23'0 0.0
2018-Feb-22 01:58N 33°36' E 130°23'0 0.9
2018-Feb-22 01:31N 33°37' E 130°23'3 5.8
2018-Feb-22 01:01N 33°38' E 130°20'510.8
2018-Feb-22 00:30N 33°42' E 130°15'713.1
2018-Feb-22 00:00N 33°48' E 130°18'713.3
2018-Feb-21 23:30N 33°54' E 130°22'713.1
2018-Feb-21 23:01N 33°58' E 130°28'613.0
2018-Feb-21 22:30N 33°60' E 130°36'713.1
2018-Feb-21 22:01N 34°02' E 130°43'612.3
2018-Feb-21 21:30N 34°01' E 130°50'510.7
2018-Feb-21 21:00N 33°56' E 130°53'3 6.5
2018-Feb-21 20:31N 33°57' E 130°56'510.1
2018-Feb-21 20:00N 33°58' E 131°02'612.8
2018-Feb-21 19:30N 33°54' E 131°09'612.3
2018-Feb-21 19:01N 33°51' E 131°15'612.8
2018-Feb-21 18:31N 33°50' E 131°23'612.7
2018-Feb-21 18:01N 33°49' E 131°30'612.5
2018-Feb-21 17:31N 33°47' E 131°38'612.5
2018-Feb-21 17:00N 33°46' E 131°45'612.7
2018-Feb-21 16:30N 33°45' E 131°52'1612.7
2018-Feb-21 15:15N 33°43' E 132°11'412.7
2018-Feb-21 14:57N 33°44' E 132°16'712.6
2018-Feb-21 14:24N 33°46' E 132°24'612.5
2018-Feb-21 13:58N 33°49' E 132°29'612.4
2018-Feb-21 13:29N 33°53' E 132°35'612.4
2018-Feb-21 13:00N 33°56' E 132°41'612.6
2018-Feb-21 12:30N 34°01' E 132°46'7 0.3
2018-Feb-20 10:25N 34°08' E 132°47'513.0
2018-Feb-20 09:59N 34°06' E 132°41'813.5
2018-Feb-20 09:26N 34°02' E 132°33'612.2
2018-Feb-20 08:55N 34°04' E 132°26'613.9
2018-Feb-20 08:30N 34°08' E 132°21'612.9
2018-Feb-20 08:00N 34°12' E 132°15'0 0.6
2018-Feb-20 07:29N 34°12' E 132°15'0 0.0
2018-Feb-20 06:59N 34°12' E 132°15'0 0.0
2018-Feb-20 06:23N 34°12' E 132°15'0 0.0
2018-Feb-20 05:59N 34°12' E 132°15'0 0.0
2018-Feb-20 05:17N 34°12' E 132°15'0 0.0
2018-Feb-20 01:23N 34°12' E 132°15'0 0.0
2018-Feb-20 00:59N 34°12' E 132°15'0 0.0
2018-Feb-20 00:11N 34°12' E 132°15'0 0.0
2018-Feb-19 23:56N 34°12' E 132°15'0 0.0
2018-Feb-19 23:20N 34°12' E 132°15'0 0.7
2018-Feb-19 23:01N 34°12' E 132°15'3 6.0
2018-Feb-19 22:29N 34°10' E 132°18'0 0.0
2018-Feb-19 22:00N 34°10' E 132°18'0 0.1
2018-Feb-19 21:30N 34°10' E 132°18'0 0.0
2018-Feb-19 21:00N 34°10' E 132°18'0 0.1
2018-Feb-19 20:30N 34°10' E 132°18'0 0.1
2018-Feb-19 20:00N 34°10' E 132°18'0 0.0
2018-Feb-19 19:29N 34°10' E 132°18'0 0.0
2018-Feb-19 19:00N 34°10' E 132°18'0 0.0
2018-Feb-19 18:30N 34°10' E 132°18'0 0.0
2018-Feb-19 18:00N 34°10' E 132°18'0 0.0
2018-Feb-19 17:29N 34°10' E 132°18'0 0.0
2018-Feb-19 17:00N 34°10' E 132°18'0 0.0
2018-Feb-19 16:30N 34°10' E 132°18'0 0.0
2018-Feb-19 16:00N 34°10' E 132°18'0 0.0
2018-Feb-19 15:30N 34°10' E 132°18'0 0.1
2018-Feb-19 15:00N 34°10' E 132°18'0 0.1
2018-Feb-19 14:30N 34°10' E 132°18'0 0.0
2018-Feb-19 14:00N 34°10' E 132°18'0 0.0
2018-Feb-19 13:30N 34°10' E 132°18'0 0.1
2018-Feb-19 13:00N 34°10' E 132°18'0 0.1
2018-Feb-19 12:29N 34°10' E 132°18'0 0.8
2018-Feb-19 12:00N 34°10' E 132°18'613.0
2018-Feb-19 11:30N 34°06' E 132°24'712.8
2018-Feb-19 10:59N 34°01' E 132°31'613.7
2018-Feb-19 10:30N 34°04' E 132°38'  
2018-Feb-17 05:23N 33°60' E 132°45'512.3
2018-Feb-17 05:00N 33°56' E 132°41'4312.8
2018-Feb-17 01:39N 33°43' E 131°52'213.8
2018-Feb-17 01:30N 33°44' E 131°50'713.4
2018-Feb-17 01:00N 33°45' E 131°42'713.4
2018-Feb-17 00:30N 33°47' E 131°34'713.5
2018-Feb-17 00:00N 33°48' E 131°26'713.0
2018-Feb-16 23:30N 33°50' E 131°19'612.8
2018-Feb-16 23:00N 33°52' E 131°11'613.0
2018-Feb-16 22:30N 33°56' E 131°05'612.0
2018-Feb-16 22:00N 33°58' E 130°58'510.5
2018-Feb-16 21:30N 33°56' E 130°53'713.2
2018-Feb-16 21:00N 34°02' E 130°52'714.3
2018-Feb-16 20:30N 34°09' E 130°50'714.2
2018-Feb-16 20:00N 34°16' E 130°48'612.3
2018-Feb-16 19:30N 34°22' E 130°48'  
Track history (hours):
 
Tides and Currents Weather Stations Pressure Air Temp Water Temp Dewpoint Dewpoint Depression Visibility Wind Speed Wind Dir Waves Ship Positions

Tomofujimaru

Last reported at 2018-Feb-25 19:42 UTC. Time now 2018-Feb-25 21:18 UTC.
Position N 33°23' E 132°01'.

Length 104 m; draft 6.3 m.

Type: Tanker. MMSI: 431501737.

Date/timePositionNaut miles runAvg speedWind from/ knotsBaromVisibWave heightAir tempDewpointWater temp
2018-Feb-25 19:42N 33°23' E 132°01'313.4
2018-Feb-25 19:29N 33°20' E 131°59'7 0.1
2018-Feb-23 18:37N 33°14' E 132°02'213.6
2018-Feb-23 18:30N 33°16' E 132°01'611.2
2018-Feb-23 17:57N 33°22' E 132°00'2512.7
2018-Feb-23 15:58N 33°40' E 132°21'712.3
2018-Feb-23 15:26N 33°45' E 132°27'612.6
2018-Feb-23 14:58N 33°49' E 132°31'612.9
2018-Feb-23 14:30N 33°54' E 132°36'612.7
2018-Feb-23 14:00N 33°58' E 132°42'713.1
2018-Feb-23 13:31N 34°03' E 132°47'1 0.1
2018-Feb-22 17:58N 34°02' E 132°47'714.4
2018-Feb-22 17:30N 33°56' E 132°42'714.6
2018-Feb-22 17:00N 33°52' E 132°35'713.9
2018-Feb-22 16:30N 33°47' E 132°28'814.0
2018-Feb-22 15:55N 33°44' E 132°19'1913.5
2018-Feb-22 14:32N 33°43' E 131°57'113.7
2018-Feb-22 14:27N 33°44' E 131°56'713.3
2018-Feb-22 13:57N 33°45' E 131°48'613.2
2018-Feb-22 13:30N 33°46' E 131°41'713.0
2018-Feb-22 13:00N 33°47' E 131°33'713.1
2018-Feb-22 12:30N 33°49' E 131°25'713.2
2018-Feb-22 12:00N 33°50' E 131°18'713.3
2018-Feb-22 11:30N 33°52' E 131°10'713.6
2018-Feb-22 11:00N 33°56' E 131°03'611.4
2018-Feb-22 10:31N 33°56' E 130°57'4 7.7
2018-Feb-22 10:00N 33°58' E 130°52'611.8
2018-Feb-22 09:30N 34°02' E 130°48'713.4
2018-Feb-22 09:01N 34°01' E 130°40'713.9
2018-Feb-22 08:31N 33°59' E 130°32'713.5
2018-Feb-22 08:00N 33°56' E 130°24'713.2
2018-Feb-22 07:31N 33°50' E 130°20'713.4
2018-Feb-22 07:00N 33°44' E 130°17'611.4
2018-Feb-22 06:30N 33°39' E 130°19'4 8.7
2018-Feb-22 06:00N 33°36' E 130°23'0 0.0
2018-Feb-22 05:29N 33°36' E 130°23'0 0.0
2018-Feb-22 04:56N 33°36' E 130°23'0 0.0
2018-Feb-22 04:29N 33°36' E 130°23'0 0.0
2018-Feb-22 03:59N 33°36' E 130°23'0 0.0
2018-Feb-22 03:29N 33°36' E 130°23'0 0.0
2018-Feb-22 02:59N 33°36' E 130°23'0 0.0
2018-Feb-22 02:28N 33°36' E 130°23'0 0.0
2018-Feb-22 01:58N 33°36' E 130°23'0 0.9
2018-Feb-22 01:31N 33°37' E 130°23'3 5.8
2018-Feb-22 01:01N 33°38' E 130°20'510.8
2018-Feb-22 00:30N 33°42' E 130°15'713.1
2018-Feb-22 00:00N 33°48' E 130°18'713.3
2018-Feb-21 23:30N 33°54' E 130°22'713.1
2018-Feb-21 23:01N 33°58' E 130°28'613.0
2018-Feb-21 22:30N 33°60' E 130°36'713.1
2018-Feb-21 22:01N 34°02' E 130°43'612.3
2018-Feb-21 21:30N 34°01' E 130°50'510.7
2018-Feb-21 21:00N 33°56' E 130°53'3 6.5
2018-Feb-21 20:31N 33°57' E 130°56'510.1
2018-Feb-21 20:00N 33°58' E 131°02'612.8
2018-Feb-21 19:30N 33°54' E 131°09'612.3
2018-Feb-21 19:01N 33°51' E 131°15'612.8
2018-Feb-21 18:31N 33°50' E 131°23'612.7
2018-Feb-21 18:01N 33°49' E 131°30'612.5
2018-Feb-21 17:31N 33°47' E 131°38'612.5
2018-Feb-21 17:00N 33°46' E 131°45'612.7
2018-Feb-21 16:30N 33°45' E 131°52'1612.7
2018-Feb-21 15:15N 33°43' E 132°11'412.7
2018-Feb-21 14:57N 33°44' E 132°16'712.6
2018-Feb-21 14:24N 33°46' E 132°24'612.5
2018-Feb-21 13:58N 33°49' E 132°29'612.4
2018-Feb-21 13:29N 33°53' E 132°35'612.4
2018-Feb-21 13:00N 33°56' E 132°41'612.6
2018-Feb-21 12:30N 34°01' E 132°46'7 0.3
2018-Feb-20 10:25N 34°08' E 132°47'513.0
2018-Feb-20 09:59N 34°06' E 132°41'813.5
2018-Feb-20 09:26N 34°02' E 132°33'612.2
2018-Feb-20 08:55N 34°04' E 132°26'613.9
2018-Feb-20 08:30N 34°08' E 132°21'612.9
2018-Feb-20 08:00N 34°12' E 132°15'0 0.6
2018-Feb-20 07:29N 34°12' E 132°15'0 0.0
2018-Feb-20 06:59N 34°12' E 132°15'0 0.0
2018-Feb-20 06:23N 34°12' E 132°15'0 0.0
2018-Feb-20 05:59N 34°12' E 132°15'0 0.0
2018-Feb-20 05:17N 34°12' E 132°15'0 0.0
2018-Feb-20 01:23N 34°12' E 132°15'0 0.0
2018-Feb-20 00:59N 34°12' E 132°15'0 0.0
2018-Feb-20 00:11N 34°12' E 132°15'0 0.0
2018-Feb-19 23:56N 34°12' E 132°15'0 0.0
2018-Feb-19 23:20N 34°12' E 132°15'0 0.7
2018-Feb-19 23:01N 34°12' E 132°15'3 6.0
2018-Feb-19 22:29N 34°10' E 132°18'0 0.0
2018-Feb-19 22:00N 34°10' E 132°18'0 0.1
2018-Feb-19 21:30N 34°10' E 132°18'0 0.0
2018-Feb-19 21:00N 34°10' E 132°18'0 0.1
2018-Feb-19 20:30N 34°10' E 132°18'0 0.1
2018-Feb-19 20:00N 34°10' E 132°18'0 0.0
2018-Feb-19 19:29N 34°10' E 132°18'0 0.0
2018-Feb-19 19:00N 34°10' E 132°18'0 0.0
2018-Feb-19 18:30N 34°10' E 132°18'0 0.0
2018-Feb-19 18:00N 34°10' E 132°18'0 0.0
2018-Feb-19 17:29N 34°10' E 132°18'0 0.0
2018-Feb-19 17:00N 34°10' E 132°18'0 0.0
2018-Feb-19 16:30N 34°10' E 132°18'0 0.0
2018-Feb-19 16:00N 34°10' E 132°18'0 0.0
2018-Feb-19 15:30N 34°10' E 132°18'0 0.1
2018-Feb-19 15:00N 34°10' E 132°18'0 0.1
2018-Feb-19 14:30N 34°10' E 132°18'0 0.0
2018-Feb-19 14:00N 34°10' E 132°18'0 0.0
2018-Feb-19 13:30N 34°10' E 132°18'0 0.1
2018-Feb-19 13:00N 34°10' E 132°18'0 0.1
2018-Feb-19 12:29N 34°10' E 132°18'0 0.8
2018-Feb-19 12:00N 34°10' E 132°18'613.0
2018-Feb-19 11:30N 34°06' E 132°24'712.8
2018-Feb-19 10:59N 34°01' E 132°31'613.7
2018-Feb-19 10:30N 34°04' E 132°38'  
2018-Feb-17 05:23N 33°60' E 132°45'512.3
2018-Feb-17 05:00N 33°56' E 132°41'4312.8
2018-Feb-17 01:39N 33°43' E 131°52'213.8
2018-Feb-17 01:30N 33°44' E 131°50'713.4
2018-Feb-17 01:00N 33°45' E 131°42'713.4
2018-Feb-17 00:30N 33°47' E 131°34'713.5
2018-Feb-17 00:00N 33°48' E 131°26'713.0
2018-Feb-16 23:30N 33°50' E 131°19'612.8
2018-Feb-16 23:00N 33°52' E 131°11'613.0
2018-Feb-16 22:30N 33°56' E 131°05'612.0
2018-Feb-16 22:00N 33°58' E 130°58'510.5
2018-Feb-16 21:30N 33°56' E 130°53'713.2
2018-Feb-16 21:00N 34°02' E 130°52'714.3
2018-Feb-16 20:30N 34°09' E 130°50'714.2
2018-Feb-16 20:00N 34°16' E 130°48'612.3
2018-Feb-16 19:30N 34°22' E 130°48'  

Dump ship's entire track history